Time;durP1;ratioP1;P1;durP2;ratioP2;P2;SDS_P1;SDS_P2;PMS_P1;PMS_P2;Temp;Humidity;BMP_temperature;BMP_pressure;BME280_temperature;BME280_humidity;BME280_pressure;Samples;Min_cycle;Max_cycle;Signal;HPM_P1;HPM_P2
2022/01/05 00:02:07;;;;;;;;;;;22.50;53.50;;;;;;5040258;28;19921;-67
2022/01/05 00:04:33;;;;;;;;;;;22.50;53.60;;;;;;5044427;28;20062;-68
2022/01/05 00:06:59;;;;;;;;;;;22.50;53.50;;;;;;5039578;28;19912;-68
2022/01/05 00:09:24;;;;;;;;;;;22.50;53.50;;;;;;5043448;28;19935;-66
2022/01/05 00:11:49;;;;;;;;;;;22.50;53.50;;;;;;5043070;28;19967;-67
2022/01/05 00:14:15;;;;;;;;;;;22.50;53.50;;;;;;5040205;28;20011;-71
2022/01/05 00:16:41;;;;;;;;;;;22.50;53.50;;;;;;5042666;28;20037;-70
2022/01/05 00:19:06;;;;;;;;;;;22.40;53.50;;;;;;5042806;28;19969;-68
2022/01/05 00:21:32;;;;;;;;;;;22.40;53.50;;;;;;5040646;28;20710;-66
2022/01/05 00:23:57;;;;;;;;;;;22.40;53.50;;;;;;5036455;28;20502;-66
2022/01/05 00:26:25;;;;;;;;;;;22.40;53.70;;;;;;5034444;28;19940;-69
2022/01/05 00:28:50;;;;;;;;;;;22.40;53.50;;;;;;5041790;28;19908;-66
2022/01/05 00:31:16;;;;;;;;;;;22.40;53.60;;;;;;5038088;28;19943;-70
2022/01/05 00:33:41;;;;;;;;;;;22.30;53.60;;;;;;5035734;28;19913;-67
2022/01/05 00:36:07;;;;;;;;;;;22.30;53.60;;;;;;5041407;28;19912;-66
2022/01/05 00:38:34;;;;;;;;;;;22.30;53.70;;;;;;5038130;28;20012;-68
2022/01/05 00:41:00;;;;;;;;;;;22.30;53.60;;;;;;5039048;28;19994;-66
2022/01/05 00:43:25;;;;;;;;;;;22.30;53.70;;;;;;5042226;28;19958;-68
2022/01/05 00:45:51;;;;;;;;;;;22.20;53.70;;;;;;5037704;28;19924;-66
2022/01/05 00:48:16;;;;;;;;;;;22.20;53.70;;;;;;5042106;28;19940;-68
2022/01/05 00:50:42;;;;;;;;;;;22.20;53.70;;;;;;5042835;28;20337;-67
2022/01/05 00:53:07;;;;;;;;;;;22.20;53.80;;;;;;5041688;28;20045;-71
2022/01/05 00:55:33;;;;;;;;;;;22.20;53.80;;;;;;5040222;28;19919;-66
2022/01/05 00:57:58;;;;;;;;;;;22.10;53.70;;;;;;5043368;28;19916;-70
2022/01/05 01:00:24;;;;;;;;;;;22.10;53.80;;;;;;5040562;28;19921;-66
2022/01/05 01:02:49;;;;;;;;;;;22.10;53.80;;;;;;5041964;28;19919;-66
2022/01/05 01:05:15;;;;;;;;;;;22.10;53.80;;;;;;5043083;28;19920;-67
2022/01/05 01:07:41;;;;;;;;;;;22.10;53.90;;;;;;5039227;28;19928;-71
2022/01/05 01:10:07;;;;;;;;;;;22.10;53.90;;;;;;5041905;28;20720;-71
2022/01/05 01:12:34;;;;;;;;;;;22.00;53.90;;;;;;5038689;28;19963;-67
2022/01/05 01:15:02;;;;;;;;;;;22.00;54.00;;;;;;5041600;28;20202;-66
2022/01/05 01:17:27;;;;;;;;;;;22.00;54.00;;;;;;5038216;28;20015;-66
2022/01/05 01:19:53;;;;;;;;;;;22.00;54.10;;;;;;5043861;28;19971;-71
2022/01/05 01:22:18;;;;;;;;;;;22.00;54.10;;;;;;5041313;28;19920;-70
2022/01/05 01:24:44;;;;;;;;;;;22.00;54.10;;;;;;5042339;28;19971;-71
2022/01/05 01:27:09;;;;;;;;;;;21.90;54.10;;;;;;5039354;28;19943;-66
2022/01/05 01:29:35;;;;;;;;;;;21.90;54.10;;;;;;5046360;28;19912;-68
2022/01/05 01:32:01;;;;;;;;;;;21.90;54.10;;;;;;5040252;28;19916;-71
2022/01/05 01:34:26;;;;;;;;;;;21.90;54.10;;;;;;5042039;28;19948;-67
2022/01/05 01:36:52;;;;;;;;;;;21.90;54.10;;;;;;5041342;28;20337;-70
2022/01/05 01:39:17;;;;;;;;;;;21.80;54.10;;;;;;5046424;28;19966;-66
2022/01/05 01:41:43;;;;;;;;;;;21.80;54.20;;;;;;5044609;28;19928;-67
2022/01/05 01:44:08;;;;;;;;;;;21.80;54.20;;;;;;5041667;28;19912;-66
2022/01/05 01:46:34;;;;;;;;;;;21.80;54.30;;;;;;5044071;28;19928;-70
2022/01/05 01:48:59;;;;;;;;;;;21.80;54.30;;;;;;5044185;28;20157;-66
2022/01/05 01:51:25;;;;;;;;;;;21.80;54.30;;;;;;5039549;28;19913;-66
2022/01/05 01:53:50;;;;;;;;;;;21.80;54.30;;;;;;5037882;28;20341;-66
2022/01/05 01:56:16;;;;;;;;;;;21.80;54.30;;;;;;5042086;28;19913;-67
2022/01/05 01:58:41;;;;;;;;;;;21.70;54.30;;;;;;5045831;28;20308;-66
2022/01/05 02:01:07;;;;;;;;;;;21.70;54.30;;;;;;5045222;28;19951;-67
2022/01/05 02:03:32;;;;;;;;;;;21.70;54.30;;;;;;5043366;28;19909;-66
2022/01/05 02:05:58;;;;;;;;;;;21.70;54.30;;;;;;5040943;28;19925;-67
2022/01/05 02:08:24;;;;;;;;;;;21.70;54.30;;;;;;5045055;28;19924;-71
2022/01/05 02:10:49;;;;;;;;;;;21.70;54.40;;;;;;5044187;28;19982;-70
2022/01/05 02:13:15;;;;;;;;;;;21.70;54.40;;;;;;5047473;28;20360;-68
2022/01/05 02:15:41;;;;;;;;;;;21.70;54.40;;;;;;5046397;28;19958;-67
2022/01/05 02:18:21;;;;;;;;;;;21.60;54.30;;;;;;5040021;28;19932;-65
2022/01/05 02:20:47;;;;;;;;;;;21.60;54.40;;;;;;5045366;28;20011;-70
2022/01/05 02:23:12;;;;;;;;;;;21.60;54.40;;;;;;5043782;28;20004;-69
2022/01/05 02:25:38;;;;;;;;;;;21.60;54.40;;;;;;5043423;28;19908;-65
2022/01/05 02:28:03;;;;;;;;;;;21.50;54.40;;;;;;5046764;28;20629;-70
2022/01/05 02:30:30;;;;;;;;;;;21.50;54.40;;;;;;5042890;28;19909;-71
2022/01/05 02:32:55;;;;;;;;;;;21.50;54.50;;;;;;5046161;28;19912;-68
2022/01/05 02:35:21;;;;;;;;;;;21.50;54.50;;;;;;5044763;28;19909;-66
2022/01/05 02:37:49;;;;;;;;;;;21.50;54.50;;;;;;5043564;28;20296;-71
2022/01/05 02:40:16;;;;;;;;;;;21.50;54.50;;;;;;5040205;28;19916;-66
2022/01/05 02:42:42;;;;;;;;;;;21.50;54.60;;;;;;5044278;28;19908;-71
2022/01/05 02:45:09;;;;;;;;;;;21.50;54.60;;;;;;5041714;28;19935;-66
2022/01/05 02:47:35;;;;;;;;;;;21.50;54.60;;;;;;5043724;28;19916;-66
2022/01/05 02:50:00;;;;;;;;;;;21.40;54.50;;;;;;5044469;28;20083;-66
2022/01/05 02:52:26;;;;;;;;;;;21.40;54.60;;;;;;5045186;28;19913;-66
2022/01/05 02:54:51;;;;;;;;;;;21.40;54.60;;;;;;5042703;28;19959;-66
2022/01/05 02:57:17;;;;;;;;;;;21.40;54.60;;;;;;5043952;28;19952;-70
2022/01/05 02:59:42;;;;;;;;;;;21.40;54.60;;;;;;5041425;28;19927;-66
2022/01/05 03:02:08;;;;;;;;;;;21.40;54.60;;;;;;5042077;28;19917;-71
2022/01/05 03:04:33;;;;;;;;;;;21.30;54.60;;;;;;5041698;28;19912;-66
2022/01/05 03:06:59;;;;;;;;;;;21.40;54.70;;;;;;5043336;28;19913;-71
2022/01/05 03:09:26;;;;;;;;;;;21.30;54.60;;;;;;5038864;28;19990;-71
2022/01/05 03:11:51;;;;;;;;;;;21.30;54.60;;;;;;5044494;28;19909;-65
2022/01/05 03:14:17;;;;;;;;;;;21.40;54.70;;;;;;5058193;28;19919;-71
2022/01/05 03:16:42;;;;;;;;;;;21.30;54.70;;;;;;5045303;28;20708;-67
2022/01/05 03:19:08;;;;;;;;;;;21.30;54.70;;;;;;5045013;28;19917;-66
2022/01/05 03:21:33;;;;;;;;;;;21.30;54.70;;;;;;5041966;28;19978;-66
2022/01/05 03:23:59;;;;;;;;;;;21.30;54.70;;;;;;5040154;28;19924;-67
2022/01/05 03:26:24;;;;;;;;;;;21.30;54.70;;;;;;5044888;28;20003;-71
2022/01/05 03:28:50;;;;;;;;;;;21.30;54.70;;;;;;5041241;28;20024;-67
2022/01/05 03:31:15;;;;;;;;;;;21.30;55.20;;;;;;5041208;28;19924;-67
2022/01/05 03:33:41;;;;;;;;;;;21.30;54.70;;;;;;5042623;28;20369;-70
2022/01/05 03:36:06;;;;;;;;;;;21.30;54.70;;;;;;5043829;28;19923;-68
2022/01/05 03:38:32;;;;;;;;;;;21.30;54.70;;;;;;5041705;28;19916;-65
2022/01/05 03:40:57;;;;;;;;;;;21.20;54.70;;;;;;5041149;28;19912;-70
2022/01/05 03:43:23;;;;;;;;;;;21.20;54.70;;;;;;5041899;28;20008;-65
2022/01/05 03:45:49;;;;;;;;;;;21.20;54.70;;;;;;5044400;28;19917;-68
2022/01/05 03:48:15;;;;;;;;;;;21.20;54.70;;;;;;5044561;28;20360;-68
2022/01/05 03:50:41;;;;;;;;;;;21.20;54.70;;;;;;5045486;28;19917;-71
2022/01/05 03:53:07;;;;;;;;;;;21.20;54.70;;;;;;5035765;28;20365;-68
2022/01/05 03:55:33;;;;;;;;;;;21.20;54.70;;;;;;5038987;28;19919;-67
2022/01/05 03:57:59;;;;;;;;;;;21.20;54.70;;;;;;5042297;28;19956;-67
2022/01/05 04:00:27;;;;;;;;;;;21.20;54.70;;;;;;5044417;28;19950;-66
2022/01/05 04:02:53;;;;;;;;;;;21.10;54.70;;;;;;5040476;28;20297;-70
2022/01/05 04:05:18;;;;;;;;;;;21.20;54.70;;;;;;5042674;28;19920;-65
2022/01/05 04:07:44;;;;;;;;;;;21.20;54.70;;;;;;5041004;28;19917;-71
2022/01/05 04:10:09;;;;;;;;;;;21.10;54.70;;;;;;5044044;28;19959;-68
2022/01/05 04:12:35;;;;;;;;;;;21.10;54.70;;;;;;5042832;28;19999;-70
2022/01/05 04:15:02;;;;;;;;;;;21.10;54.70;;;;;;5042078;28;20007;-70
2022/01/05 04:17:27;;;;;;;;;;;21.10;54.70;;;;;;5037861;28;20225;-70
2022/01/05 04:19:53;;;;;;;;;;;21.10;54.70;;;;;;5037734;28;19908;-68
2022/01/05 04:22:18;;;;;;;;;;;21.10;54.70;;;;;;5041840;28;19916;-67
2022/01/05 04:24:44;;;;;;;;;;;21.10;54.70;;;;;;5043308;28;20053;-66
2022/01/05 04:27:09;;;;;;;;;;;21.10;54.70;;;;;;5043729;28;20042;-68
2022/01/05 04:29:35;;;;;;;;;;;21.10;54.70;;;;;;5043301;28;20012;-67
2022/01/05 04:32:00;;;;;;;;;;;21.10;54.70;;;;;;5040778;28;19963;-65
2022/01/05 04:34:26;;;;;;;;;;;21.10;54.80;;;;;;5045398;28;19923;-66
2022/01/05 04:36:51;;;;;;;;;;;21.10;54.80;;;;;;5040788;28;19952;-66
2022/01/05 04:39:17;;;;;;;;;;;21.10;54.70;;;;;;5039769;28;20016;-66
2022/01/05 04:41:42;;;;;;;;;;;21.00;54.70;;;;;;5043068;28;20058;-67
2022/01/05 04:44:08;;;;;;;;;;;21.00;54.80;;;;;;5043763;28;20329;-71
2022/01/05 04:46:33;;;;;;;;;;;21.00;54.80;;;;;;5040662;28;19931;-65
2022/01/05 04:48:59;;;;;;;;;;;21.00;55.30;;;;;;5044038;28;19916;-68
2022/01/05 04:51:24;;;;;;;;;;;21.00;54.80;;;;;;5040137;28;21001;-67
2022/01/05 04:53:51;;;;;;;;;;;21.00;54.80;;;;;;5042874;28;19957;-68
2022/01/05 04:56:17;;;;;;;;;;;21.00;54.80;;;;;;5044858;28;19923;-65
2022/01/05 04:58:42;;;;;;;;;;;21.00;54.80;;;;;;5041987;28;20361;-68
2022/01/05 05:01:08;;;;;;;;;;;21.00;54.80;;;;;;5043943;28;20338;-66
2022/01/05 05:03:33;;;;;;;;;;;21.00;54.80;;;;;;5044188;28;19917;-71
2022/01/05 05:05:58;;;;;;;;;;;21.00;54.90;;;;;;5044545;28;19966;-71
2022/01/05 05:08:24;;;;;;;;;;;21.00;54.80;;;;;;5043757;28;20021;-67
2022/01/05 05:10:49;;;;;;;;;;;20.90;54.80;;;;;;5041659;28;19963;-66
2022/01/05 05:13:15;;;;;;;;;;;21.00;54.90;;;;;;5045101;28;19909;-67
2022/01/05 05:15:41;;;;;;;;;;;20.90;54.80;;;;;;5046679;28;19912;-68
2022/01/05 05:18:06;;;;;;;;;;;20.90;54.90;;;;;;5046680;28;19909;-65
2022/01/05 05:20:34;;;;;;;;;;;20.90;54.90;;;;;;5046035;28;19923;-70
2022/01/05 05:23:00;;;;;;;;;;;20.90;54.80;;;;;;5044935;28;19908;-67
2022/01/05 05:25:26;;;;;;;;;;;20.90;54.90;;;;;;5045065;28;19966;-67
2022/01/05 05:27:52;;;;;;;;;;;20.90;54.90;;;;;;5047775;28;20361;-66
2022/01/05 05:30:18;;;;;;;;;;;20.90;54.90;;;;;;5042140;28;19974;-66
2022/01/05 05:32:43;;;;;;;;;;;20.90;54.90;;;;;;5046475;28;19981;-67
2022/01/05 05:35:09;;;;;;;;;;;20.90;54.90;;;;;;5047966;28;20007;-65
2022/01/05 05:37:35;;;;;;;;;;;20.90;54.90;;;;;;5043450;28;19955;-65
2022/01/05 05:40:01;;;;;;;;;;;20.90;54.90;;;;;;5043128;28;20291;-65
2022/01/05 05:42:26;;;;;;;;;;;20.90;54.90;;;;;;5045131;28;19913;-70
2022/01/05 05:44:52;;;;;;;;;;;20.80;54.80;;;;;;5047169;28;19932;-67
2022/01/05 05:47:17;;;;;;;;;;;20.90;55.40;;;;;;5047227;28;20459;-70
2022/01/05 05:49:45;;;;;;;;;;;20.80;54.80;;;;;;5042803;28;19913;-65
2022/01/05 05:52:11;;;;;;;;;;;20.80;54.80;;;;;;5045870;28;20527;-67
2022/01/05 05:54:36;;;;;;;;;;;20.80;54.80;;;;;;5041529;28;20007;-70
2022/01/05 05:57:02;;;;;;;;;;;20.80;54.80;;;;;;5042732;28;19944;-70
2022/01/05 05:59:27;;;;;;;;;;;20.80;54.80;;;;;;5047246;28;22261;-67
2022/01/05 06:01:53;;;;;;;;;;;20.80;54.80;;;;;;5046563;28;19921;-70
2022/01/05 06:04:19;;;;;;;;;;;20.80;54.80;;;;;;5042296;28;19920;-66
2022/01/05 06:06:45;;;;;;;;;;;20.80;54.80;;;;;;5041347;28;19924;-67
2022/01/05 06:09:10;;;;;;;;;;;20.80;54.80;;;;;;5042039;28;19912;-70
2022/01/05 06:11:36;;;;;;;;;;;20.80;54.80;;;;;;5045530;28;19916;-68
2022/01/05 06:14:01;;;;;;;;;;;20.80;54.90;;;;;;5043998;28;19913;-66
2022/01/05 06:16:27;;;;;;;;;;;20.70;54.80;;;;;;5042396;28;20007;-65
2022/01/05 06:18:52;;;;;;;;;;;20.80;54.90;;;;;;5042152;28;19928;-70
2022/01/05 06:21:18;;;;;;;;;;;20.70;54.80;;;;;;5045289;28;19955;-69
2022/01/05 06:23:43;;;;;;;;;;;20.70;54.80;;;;;;5044764;28;19932;-66
2022/01/05 06:26:09;;;;;;;;;;;20.80;54.90;;;;;;5046301;28;19913;-66
2022/01/05 06:28:34;;;;;;;;;;;20.70;54.80;;;;;;5042463;28;19913;-67
2022/01/05 06:31:00;;;;;;;;;;;20.70;54.90;;;;;;5043732;28;19913;-67
2022/01/05 06:33:25;;;;;;;;;;;20.70;54.90;;;;;;5041815;28;20023;-69
2022/01/05 06:35:51;;;;;;;;;;;20.70;54.90;;;;;;5047370;28;19916;-65
2022/01/05 06:38:16;;;;;;;;;;;20.70;54.90;;;;;;5042055;28;20436;-66
2022/01/05 06:40:42;;;;;;;;;;;20.70;54.90;;;;;;5041948;28;19936;-65
2022/01/05 06:43:07;;;;;;;;;;;20.70;54.90;;;;;;5039905;28;20319;-66
2022/01/05 06:45:33;;;;;;;;;;;20.70;54.90;;;;;;5043982;28;19913;-65
2022/01/05 06:47:58;;;;;;;;;;;20.70;54.90;;;;;;5043669;28;19913;-69
2022/01/05 06:50:24;;;;;;;;;;;20.70;54.90;;;;;;5044058;28;19913;-70
2022/01/05 06:52:50;;;;;;;;;;;20.60;54.90;;;;;;5044762;28;19915;-70
2022/01/05 06:55:16;;;;;;;;;;;20.70;55.00;;;;;;5045763;28;19967;-67
2022/01/05 06:57:42;;;;;;;;;;;20.70;55.00;;;;;;5042192;28;19956;-69
2022/01/05 07:00:09;;;;;;;;;;;20.70;55.00;;;;;;5042579;28;19963;-70
2022/01/05 07:02:34;;;;;;;;;;;20.60;54.90;;;;;;5038073;28;19921;-67
2022/01/05 07:05:00;;;;;;;;;;;20.60;54.90;;;;;;5043334;28;20026;-66
2022/01/05 07:07:25;;;;;;;;;;;20.60;55.00;;;;;;5039562;28;20312;-70
2022/01/05 07:09:51;;;;;;;;;;;20.60;55.00;;;;;;5041482;28;19912;-67
2022/01/05 07:12:16;;;;;;;;;;;20.60;55.00;;;;;;5040052;28;20011;-65
2022/01/05 07:14:42;;;;;;;;;;;20.60;55.00;;;;;;5042626;28;19978;-66
2022/01/05 07:17:07;;;;;;;;;;;20.60;55.00;;;;;;5044617;28;19987;-67
2022/01/05 07:19:33;;;;;;;;;;;20.60;55.00;;;;;;5039574;28;19916;-68
2022/01/05 07:21:58;;;;;;;;;;;20.60;55.00;;;;;;5037273;28;20659;-66
2022/01/05 07:24:24;;;;;;;;;;;20.60;55.00;;;;;;5044176;28;20039;-67
2022/01/05 07:26:49;;;;;;;;;;;20.60;55.00;;;;;;5040313;28;20503;-65
2022/01/05 07:29:15;;;;;;;;;;;20.60;55.00;;;;;;5043941;28;19970;-64
2022/01/05 07:31:41;;;;;;;;;;;20.60;55.10;;;;;;5040538;28;20035;-65
2022/01/05 07:34:07;;;;;;;;;;;20.60;55.00;;;;;;5041556;28;20003;-66
2022/01/05 07:36:33;;;;;;;;;;;20.60;55.10;;;;;;5042981;28;20019;-68
2022/01/05 07:38:59;;;;;;;;;;;20.60;55.10;;;;;;5042213;28;19967;-64
2022/01/05 07:41:25;;;;;;;;;;;20.60;55.10;;;;;;5040991;28;20706;-68
2022/01/05 07:43:51;;;;;;;;;;;20.50;55.10;;;;;;5042735;28;20011;-69
2022/01/05 07:46:17;;;;;;;;;;;20.60;55.10;;;;;;5041833;28;19920;-68
2022/01/05 07:48:42;;;;;;;;;;;20.60;55.10;;;;;;5040406;28;19908;-68
2022/01/05 07:51:08;;;;;;;;;;;20.50;55.00;;;;;;5041988;28;19917;-70
2022/01/05 07:53:33;;;;;;;;;;;20.50;55.10;;;;;;5037966;28;19912;-66
2022/01/05 07:55:59;;;;;;;;;;;20.50;55.00;;;;;;5040233;28;19917;-70
2022/01/05 07:58:26;;;;;;;;;;;20.50;55.10;;;;;;5043754;28;19920;-67
2022/01/05 08:00:51;;;;;;;;;;;20.50;55.10;;;;;;5040018;28;19927;-68
2022/01/05 08:03:17;;;;;;;;;;;20.50;55.10;;;;;;5041531;28;19913;-69
2022/01/05 08:05:42;;;;;;;;;;;20.50;55.10;;;;;;5039538;28;20683;-69
2022/01/05 08:08:08;;;;;;;;;;;20.50;55.10;;;;;;5041042;28;19915;-67
2022/01/05 08:10:33;;;;;;;;;;;20.50;55.10;;;;;;5035580;28;19909;-69
2022/01/05 08:12:59;;;;;;;;;;;20.50;55.10;;;;;;5042824;28;19927;-68
2022/01/05 08:15:25;;;;;;;;;;;20.50;55.10;;;;;;5036059;28;19920;-67
2022/01/05 08:17:50;;;;;;;;;;;20.50;55.10;;;;;;5040729;28;19920;-64
2022/01/05 08:20:16;;;;;;;;;;;20.50;55.10;;;;;;5042541;28;19923;-68
2022/01/05 08:22:42;;;;;;;;;;;20.50;55.20;;;;;;5039865;28;19912;-66
2022/01/05 08:25:09;;;;;;;;;;;20.50;55.20;;;;;;5040813;28;20448;-70
2022/01/05 08:27:34;;;;;;;;;;;20.50;55.20;;;;;;5039952;28;19913;-68
2022/01/05 08:30:04;;;;;;;;;;;20.50;55.20;;;;;;5039845;28;19917;-66
2022/01/05 08:32:30;;;;;;;;;;;20.50;55.20;;;;;;5044151;28;19912;-66
2022/01/05 08:34:56;;;;;;;;;;;20.50;55.20;;;;;;5040387;28;19916;-67
2022/01/05 08:37:21;;;;;;;;;;;20.50;55.20;;;;;;5039538;28;19913;-67
2022/01/05 08:39:50;;;;;;;;;;;20.50;55.20;;;;;;5043214;28;19913;-68
2022/01/05 08:42:15;;;;;;;;;;;20.50;55.20;;;;;;5044757;28;20063;-69
2022/01/05 08:44:41;;;;;;;;;;;20.50;55.20;;;;;;5045256;28;20368;-67
2022/01/05 08:47:07;;;;;;;;;;;20.50;55.30;;;;;;5046554;28;19978;-67
2022/01/05 08:49:33;;;;;;;;;;;20.50;55.70;;;;;;5041848;28;19939;-68
2022/01/05 08:51:59;;;;;;;;;;;20.50;55.30;;;;;;5044651;28;19913;-67
2022/01/05 08:54:24;;;;;;;;;;;20.40;55.20;;;;;;5043018;28;19905;-69
2022/01/05 08:56:50;;;;;;;;;;;20.40;55.20;;;;;;5044562;28;19919;-68
2022/01/05 08:59:15;;;;;;;;;;;20.50;55.30;;;;;;5043422;28;20340;-70
2022/01/05 09:01:43;;;;;;;;;;;20.50;55.30;;;;;;5043821;28;19960;-70
2022/01/05 09:04:09;;;;;;;;;;;20.40;55.20;;;;;;5045954;28;20043;-70
2022/01/05 09:06:34;;;;;;;;;;;20.40;55.20;;;;;;5042715;28;20104;-69
2022/01/05 09:09:00;;;;;;;;;;;20.40;55.20;;;;;;5044967;28;19913;-67
2022/01/05 09:11:27;;;;;;;;;;;20.40;55.20;;;;;;5043722;28;19928;-69
2022/01/05 09:13:52;;;;;;;;;;;20.40;55.20;;;;;;5042684;28;19919;-64
2022/01/05 09:16:18;;;;;;;;;;;20.40;55.20;;;;;;5048019;28;19912;-67
2022/01/05 09:18:44;;;;;;;;;;;20.40;55.20;;;;;;5044800;28;20004;-67
2022/01/05 09:21:10;;;;;;;;;;;20.40;55.20;;;;;;5043457;28;20276;-68
2022/01/05 09:23:35;;;;;;;;;;;20.40;55.20;;;;;;5037307;28;20035;-68
2022/01/05 09:26:02;;;;;;;;;;;20.40;55.20;;;;;;5043749;28;19956;-69
2022/01/05 09:28:27;;;;;;;;;;;20.40;55.20;;;;;;5045386;28;19916;-67
2022/01/05 09:30:53;;;;;;;;;;;20.40;55.20;;;;;;5043030;28;19966;-66
2022/01/05 09:33:19;;;;;;;;;;;20.40;55.20;;;;;;5040974;28;19966;-69
2022/01/05 09:35:46;;;;;;;;;;;20.40;55.20;;;;;;5038541;28;19944;-68
2022/01/05 09:43:54;;;;;;;;;;;20.40;55.20;;;;;;5042130;28;19962;-68
2022/01/05 09:46:24;;;;;;;;;;;20.40;55.20;;;;;;5043211;28;19959;-67
2022/01/05 09:48:49;;;;;;;;;;;20.40;55.20;;;;;;5037139;28;20300;-69
2022/01/05 09:51:17;;;;;;;;;;;20.40;55.20;;;;;;5042829;28;19909;-66
2022/01/05 09:53:43;;;;;;;;;;;20.40;55.30;;;;;;5041910;28;19944;-67
2022/01/05 09:56:08;;;;;;;;;;;20.40;55.20;;;;;;5044599;28;20054;-70
2022/01/05 09:58:36;;;;;;;;;;;20.40;55.20;;;;;;5044259;28;19913;-68
2022/01/05 10:01:03;;;;;;;;;;;20.40;55.20;;;;;;5041431;28;20047;-65
2022/01/05 10:03:28;;;;;;;;;;;20.40;55.20;;;;;;5040479;28;19916;-67
2022/01/05 10:05:54;;;;;;;;;;;20.40;55.20;;;;;;5046796;28;19908;-67
2022/01/05 10:08:19;;;;;;;;;;;20.40;55.20;;;;;;5041185;28;19916;-69
2022/01/05 10:10:45;;;;;;;;;;;20.30;55.10;;;;;;5038967;28;19912;-70
2022/01/05 10:13:11;;;;;;;;;;;20.40;55.20;;;;;;5043065;28;19916;-67
2022/01/05 10:15:36;;;;;;;;;;;20.30;55.10;;;;;;5041782;28;19916;-69
2022/01/05 10:18:18;;;;;;;;;;;20.40;55.10;;;;;;5047370;28;20037;-65
2022/01/05 10:20:55;;;;;;;;;;;20.40;55.10;;;;;;5043840;28;19913;-66
2022/01/05 10:23:41;;;;;;;;;;;20.30;55.00;;;;;;5041883;28;19991;-69
2022/01/05 10:26:26;;;;;;;;;;;20.30;55.00;;;;;;5041557;28;19915;-70
2022/01/05 10:28:53;;;;;;;;;;;20.30;55.00;;;;;;5040684;28;19920;-66
2022/01/05 10:31:20;;;;;;;;;;;20.30;55.00;;;;;;5043385;28;20388;-67
2022/01/05 10:33:46;;;;;;;;;;;20.30;55.00;;;;;;5038425;28;19961;-67
2022/01/05 10:36:11;;;;;;;;;;;20.30;54.90;;;;;;5042869;28;20037;-67
2022/01/05 10:38:37;;;;;;;;;;;20.30;54.90;;;;;;5038439;28;19978;-67
2022/01/05 10:41:16;;;;;;;;;;;20.30;54.90;;;;;;5038431;28;20068;-65
2022/01/05 10:44:00;;;;;;;;;;;20.30;54.90;;;;;;5036976;28;20527;-68
2022/01/05 10:46:33;;;;;;;;;;;20.30;54.90;;;;;;5035960;28;19931;-68
2022/01/05 10:48:58;;;;;;;;;;;20.30;54.90;;;;;;5039722;28;19919;-68
2022/01/05 10:51:31;;;;;;;;;;;20.30;54.90;;;;;;5035388;28;19916;-68
2022/01/05 10:54:29;;;;;;;;;;;20.30;54.90;;;;;;5035334;28;19935;-65
2022/01/05 10:57:05;;;;;;;;;;;20.30;54.90;;;;;;5016232;28;19913;-69
2022/01/05 10:59:35;;;;;;;;;;;20.30;54.90;;;;;;5041424;28;19909;-66
2022/01/05 11:02:19;;;;;;;;;;;20.30;55.00;;;;;;5041535;28;19923;-69
2022/01/05 11:04:44;;;;;;;;;;;20.30;55.10;;;;;;5041454;28;19970;-66
2022/01/05 11:07:18;;;;;;;;;;;20.40;55.10;;;;;;5030784;28;19912;-69
2022/01/05 11:09:51;;;;;;;;;;;20.40;55.10;;;;;;5037034;28;19990;-70
2022/01/05 11:12:16;;;;;;;;;;;20.40;54.90;;;;;;5040842;28;19917;-67
2022/01/05 11:14:42;;;;;;;;;;;20.50;54.80;;;;;;5036374;28;19991;-67
2022/01/05 11:17:07;;;;;;;;;;;20.50;54.80;;;;;;5038082;28;19924;-69
2022/01/05 11:19:35;;;;;;;;;;;20.60;54.70;;;;;;5034919;28;19912;-70
2022/01/05 11:22:16;;;;;;;;;;;20.60;54.60;;;;;;5037386;28;19953;-70
2022/01/05 11:24:48;;;;;;;;;;;20.60;54.50;;;;;;5035777;28;19967;-69
2022/01/05 11:27:16;;;;;;;;;;;20.60;54.90;;;;;;5036953;28;19916;-69
2022/01/05 11:29:42;;;;;;;;;;;20.70;54.50;;;;;;5037522;28;19921;-67
2022/01/05 11:32:09;;;;;;;;;;;20.70;54.50;;;;;;5038781;28;19924;-65
2022/01/05 11:34:34;;;;;;;;;;;20.70;54.30;;;;;;5035069;28;19924;-69
2022/01/05 11:37:03;;;;;;;;;;;20.80;54.40;;;;;;5033175;28;19912;-68
2022/01/05 11:39:30;;;;;;;;;;;20.80;54.30;;;;;;5033720;28;20330;-70
2022/01/05 11:41:57;;;;;;;;;;;20.90;54.20;;;;;;5036411;28;19933;-68
2022/01/05 11:44:25;;;;;;;;;;;20.90;54.20;;;;;;5032725;28;20029;-67
2022/01/05 11:46:51;;;;;;;;;;;21.00;54.20;;;;;;5034158;28;19909;-69
2022/01/05 11:49:24;;;;;;;;;;;21.00;54.00;;;;;;5034942;28;21204;-66
2022/01/05 11:51:51;;;;;;;;;;;21.00;54.00;;;;;;5031246;28;19920;-68
2022/01/05 11:54:17;;;;;;;;;;;21.00;54.60;;;;;;5035213;28;19919;-70
2022/01/05 11:56:44;;;;;;;;;;;21.10;54.10;;;;;;5035018;28;19912;-69
2022/01/05 11:59:20;;;;;;;;;;;21.10;54.10;;;;;;5033228;28;19916;-69
2022/01/05 12:02:04;;;;;;;;;;;21.20;54.00;;;;;;5033709;28;19986;-67
2022/01/05 12:04:30;;;;;;;;;;;21.20;54.00;;;;;;5033534;28;19966;-64
2022/01/05 12:07:02;;;;;;;;;;;21.20;54.00;;;;;;5032305;28;19924;-64
2022/01/05 12:09:29;;;;;;;;;;;21.20;53.90;;;;;;5037453;28;19924;-66
2022/01/05 12:11:56;;;;;;;;;;;21.20;53.90;;;;;;5033559;28;20466;-64
2022/01/05 12:14:21;;;;;;;;;;;21.20;53.80;;;;;;5036273;28;20009;-66
2022/01/05 12:17:02;;;;;;;;;;;21.20;53.80;;;;;;5036056;28;19913;-66
2022/01/05 12:19:29;;;;;;;;;;;21.20;53.80;;;;;;5037454;28;19913;-67
2022/01/05 12:21:55;;;;;;;;;;;21.10;53.70;;;;;;5030143;28;19921;-68
2022/01/05 12:24:21;;;;;;;;;;;21.20;53.70;;;;;;5032374;28;19967;-67
2022/01/05 12:27:05;;;;;;;;;;;21.20;53.70;;;;;;5029428;28;20013;-66
2022/01/05 12:29:31;;;;;;;;;;;21.20;53.70;;;;;;5031723;28;19999;-69
2022/01/05 12:31:58;;;;;;;;;;;21.20;53.70;;;;;;5035866;28;20580;-64
2022/01/05 12:35:02;;;;;;;;;;;21.20;53.80;;;;;;5034577;28;19917;-64
2022/01/05 12:37:37;;;;;;;;;;;21.20;53.80;;;;;;4989103;28;19963;-67
2022/01/05 12:40:20;;;;;;;;;;;21.20;53.80;;;;;;4989326;28;19926;-65
2022/01/05 12:42:46;;;;;;;;;;;21.20;53.80;;;;;;5016996;28;19916;-64
2022/01/05 12:45:33;;;;;;;;;;;21.20;53.80;;;;;;5034636;28;19962;-65
2022/01/05 12:47:59;;;;;;;;;;;21.20;53.80;;;;;;5031950;28;19965;-68
2022/01/05 12:50:31;;;;;;;;;;;21.20;53.80;;;;;;5029304;28;19913;-68
2022/01/05 12:52:57;;;;;;;;;;;21.30;53.80;;;;;;5030603;28;19952;-64
2022/01/05 12:55:23;;;;;;;;;;;21.20;53.80;;;;;;5028840;28;20031;-66
2022/01/05 12:57:54;;;;;;;;;;;21.20;53.80;;;;;;5031212;28;19912;-64
2022/01/05 13:00:20;;;;;;;;;;;21.30;53.80;;;;;;5033727;28;19921;-67
2022/01/05 13:02:47;;;;;;;;;;;21.30;53.80;;;;;;5034119;28;19999;-67
2022/01/05 13:05:12;;;;;;;;;;;21.30;53.80;;;;;;5034289;28;20026;-67
2022/01/05 13:07:41;;;;;;;;;;;21.20;53.80;;;;;;5036156;28;19912;-68
2022/01/05 13:10:13;;;;;;;;;;;21.30;53.90;;;;;;5028299;28;19913;-67
2022/01/05 13:12:39;;;;;;;;;;;21.30;53.90;;;;;;5032645;28;20452;-66
2022/01/05 13:15:10;;;;;;;;;;;21.30;53.80;;;;;;5036689;28;20094;-68
2022/01/05 13:17:37;;;;;;;;;;;21.30;53.80;;;;;;5034933;28;20264;-67
2022/01/05 13:20:03;;;;;;;;;;;21.30;53.80;;;;;;5030691;28;20503;-65
2022/01/05 13:22:36;;;;;;;;;;;21.30;53.80;;;;;;5030714;28;19932;-68
2022/01/05 13:25:05;;;;;;;;;;;21.30;53.80;;;;;;5031355;28;19917;-69
2022/01/05 13:27:33;;;;;;;;;;;21.20;53.80;;;;;;5034145;28;21209;-69
2022/01/05 13:30:00;;;;;;;;;;;21.30;53.80;;;;;;5035346;28;19916;-66
2022/01/05 13:32:26;;;;;;;;;;;21.30;53.80;;;;;;5038947;28;20027;-69
2022/01/05 13:34:58;;;;;;;;;;;21.30;53.80;;;;;;5039081;28;19917;-67
2022/01/05 13:37:34;;;;;;;;;;;21.30;53.80;;;;;;5053710;28;19912;-66
2022/01/05 13:40:05;;;;;;;;;;;21.30;53.80;;;;;;5034454;28;19925;-70
2022/01/05 13:42:32;;;;;;;;;;;21.30;53.80;;;;;;5038315;28;19948;-67
2022/01/05 13:44:58;;;;;;;;;;;21.30;53.80;;;;;;5038234;28;19912;-67
2022/01/05 13:47:23;;;;;;;;;;;21.30;53.70;;;;;;5039590;28;20660;-67
2022/01/05 13:50:05;;;;;;;;;;;21.30;53.70;;;;;;5038272;28;19912;-67
2022/01/05 13:52:31;;;;;;;;;;;21.30;53.70;;;;;;5038790;28;19937;-65
2022/01/05 13:54:56;;;;;;;;;;;21.40;53.80;;;;;;5039922;28;19916;-66
2022/01/05 13:57:29;;;;;;;;;;;21.30;53.70;;;;;;5035532;28;20086;-68
2022/01/05 14:00:11;;;;;;;;;;;21.30;53.70;;;;;;5034512;28;19959;-66
2022/01/05 14:02:37;;;;;;;;;;;21.30;53.70;;;;;;5036169;28;19927;-67
2022/01/05 14:05:04;;;;;;;;;;;21.30;53.70;;;;;;5037899;28;20328;-69
2022/01/05 14:07:30;;;;;;;;;;;21.30;53.70;;;;;;5034538;28;20446;-70
2022/01/05 14:10:05;;;;;;;;;;;21.30;53.60;;;;;;5034319;28;19913;-69
2022/01/05 14:12:32;;;;;;;;;;;21.30;53.60;;;;;;5036613;28;19921;-70
2022/01/05 14:14:58;;;;;;;;;;;21.30;53.60;;;;;;5030265;28;20034;-66
2022/01/05 14:17:24;;;;;;;;;;;21.30;53.60;;;;;;5036714;28;19913;-68
2022/01/05 14:19:49;;;;;;;;;;;21.40;53.70;;;;;;5039443;28;19939;-68
2022/01/05 14:22:19;;;;;;;;;;;21.30;53.70;;;;;;5036712;28;19913;-67